createdAt,value
2022-11-24T00:01:48.656Z,8.98
2022-11-24T00:04:17.231Z,7.97
2022-11-24T00:06:45.292Z,8.45
2022-11-24T00:12:05.280Z,9.48
2022-11-24T00:14:33.505Z,8.13
2022-11-24T00:17:01.339Z,8.60
2022-11-24T00:19:55.682Z,8.30
2022-11-24T00:22:23.254Z,9.23
2022-11-24T00:24:51.229Z,10.13
2022-11-24T00:27:19.230Z,8.85
2022-11-24T00:29:47.280Z,12.75
2022-11-24T00:32:15.221Z,9.02
2022-11-24T00:35:07.821Z,7.07
2022-11-24T00:37:35.226Z,9.30
2022-11-24T00:40:03.413Z,7.80
2022-11-24T00:42:31.232Z,8.70
2022-11-24T00:45:13.455Z,9.65
2022-11-24T00:47:41.205Z,8.50
2022-11-24T00:50:09.766Z,6.93
2022-11-24T00:52:37.261Z,11.80
2022-11-24T00:55:10.604Z,11.85
2022-11-24T00:57:39.200Z,7.72
2022-11-24T01:00:08.359Z,12.40
2022-11-24T01:02:40.576Z,12.75
2022-11-24T01:05:09.650Z,5.97
2022-11-24T01:07:37.525Z,10.15
2022-11-24T01:10:05.822Z,14.95
2022-11-24T01:12:40.057Z,9.00
2022-11-24T01:15:07.706Z,8.63
2022-11-24T01:17:35.204Z,10.65
2022-11-24T01:20:04.748Z,12.20
2022-11-24T01:22:39.759Z,8.20
2022-11-24T01:25:07.975Z,11.18
2022-11-24T01:27:35.442Z,8.52
2022-11-24T01:30:04.221Z,8.60
2022-11-24T01:32:33.265Z,8.60
2022-11-24T01:35:07.318Z,7.82
2022-11-24T01:37:35.300Z,8.02
2022-11-24T01:40:04.035Z,8.63
2022-11-24T01:43:02.334Z,12.13
2022-11-24T01:45:41.050Z,10.07
2022-11-24T01:48:38.302Z,11.80
2022-11-24T01:51:19.991Z,10.38
2022-11-24T01:54:00.799Z,8.10
2022-11-24T01:56:35.690Z,9.75
2022-11-24T01:59:06.866Z,14.00
2022-11-24T02:01:35.550Z,6.43
2022-11-24T02:04:07.171Z,10.95
2022-11-24T02:07:01.548Z,8.77
2022-11-24T02:10:25.119Z,7.78
2022-11-24T02:13:18.211Z,7.90
2022-11-24T02:15:45.382Z,12.20
2022-11-24T02:18:13.379Z,11.00
2022-11-24T02:20:41.240Z,12.23
2022-11-24T02:23:30.240Z,7.38
2022-11-24T02:26:09.665Z,9.93
2022-11-24T02:28:43.320Z,7.47
2022-11-24T02:31:11.633Z,8.85
2022-11-24T02:33:39.741Z,10.43
2022-11-24T02:36:07.696Z,8.50
2022-11-24T02:38:35.982Z,8.98
2022-11-24T02:41:07.580Z,10.65
2022-11-24T02:43:40.050Z,10.75
2022-11-24T02:46:08.252Z,8.68
2022-11-24T02:48:35.234Z,11.63
2022-11-24T02:51:03.620Z,10.98
2022-11-24T02:53:31.276Z,10.43
2022-11-24T02:56:04.248Z,8.90
2022-11-24T02:58:31.229Z,15.38
2022-11-24T03:01:04.976Z,8.40
2022-11-24T03:03:33.267Z,7.72
2022-11-24T03:06:01.203Z,9.82
2022-11-24T03:08:33.265Z,8.27
2022-11-24T03:11:02.528Z,11.18
2022-11-24T03:13:31.263Z,7.88
2022-11-24T03:15:59.279Z,7.47
2022-11-24T03:18:32.243Z,9.45
2022-11-24T03:21:00.344Z,11.45
2022-11-24T03:23:27.255Z,8.05
2022-11-24T03:25:55.230Z,10.73
2022-11-24T03:28:23.183Z,9.77
2022-11-24T03:30:51.340Z,9.43
2022-11-24T03:33:19.248Z,12.45
2022-11-24T03:35:51.242Z,11.73
2022-11-24T03:38:19.814Z,10.38
2022-11-24T03:40:53.302Z,12.13
2022-11-24T03:43:25.440Z,11.70
2022-11-24T03:48:45.227Z,10.73
2022-11-24T03:51:13.326Z,8.77
2022-11-24T03:53:41.300Z,9.13
2022-11-24T03:56:09.340Z,7.30
2022-11-24T03:58:37.362Z,10.70
2022-11-24T04:01:14.310Z,8.05
2022-11-24T04:03:41.240Z,9.38
2022-11-24T04:06:09.341Z,9.30
2022-11-24T04:08:37.232Z,10.15
2022-11-24T04:11:05.458Z,11.20
2022-11-24T04:13:33.276Z,8.35
2022-11-24T04:16:05.779Z,9.00
2022-11-24T04:18:39.180Z,11.23
2022-11-24T04:21:07.164Z,10.32
2022-11-24T04:23:35.188Z,9.68
2022-11-24T04:26:03.191Z,9.02
2022-11-24T04:28:36.184Z,9.55
2022-11-24T04:31:04.052Z,11.98
2022-11-24T04:33:31.470Z,14.00
2022-11-24T04:35:59.184Z,13.48
2022-11-24T04:39:25.820Z,8.80
2022-11-24T04:41:19.194Z,10.73
2022-11-24T04:43:50.234Z,9.45
2022-11-24T04:46:17.755Z,14.23
2022-11-24T04:48:45.312Z,13.32
2022-11-24T04:51:14.292Z,11.93
2022-11-24T04:53:41.593Z,13.80
2022-11-24T04:56:40.339Z,10.75
2022-11-24T04:59:12.242Z,18.13
2022-11-24T05:01:39.234Z,9.75
2022-11-24T05:04:13.036Z,11.80
2022-11-24T05:06:41.276Z,8.13
2022-11-24T05:09:21.432Z,9.98
2022-11-24T05:12:15.148Z,11.73
2022-11-24T05:14:43.118Z,12.95
2022-11-24T05:17:11.132Z,9.95
2022-11-24T05:22:31.696Z,10.43
2022-11-24T05:24:59.168Z,8.65
2022-11-24T05:27:27.300Z,13.68
2022-11-24T05:29:55.376Z,10.80
2022-11-24T05:32:29.016Z,14.55
2022-11-24T05:35:02.261Z,9.82
2022-11-24T05:37:29.141Z,11.20
2022-11-24T05:40:21.255Z,12.07
2022-11-24T05:42:49.079Z,17.10
2022-11-24T05:45:19.307Z,10.40
2022-11-24T05:47:48.758Z,12.80
2022-11-24T05:50:24.594Z,11.07
2022-11-24T05:52:53.088Z,10.80
2022-11-24T05:55:25.185Z,8.23
2022-11-24T05:58:01.677Z,7.78
2022-11-24T06:00:30.984Z,14.18
2022-11-24T06:03:00.296Z,17.98
2022-11-24T06:05:28.591Z,11.38
2022-11-24T06:07:59.013Z,10.02
2022-11-24T06:10:33.300Z,14.15
2022-11-24T06:13:07.081Z,12.43
2022-11-24T06:15:37.586Z,13.63
2022-11-24T06:18:05.149Z,12.93
2022-11-24T06:20:33.299Z,14.35
2022-11-24T06:23:01.494Z,11.85
2022-11-24T06:25:35.199Z,16.75
2022-11-24T06:28:05.050Z,9.52
2022-11-24T06:31:01.540Z,10.60
2022-11-24T06:33:34.295Z,11.88
2022-11-24T06:36:07.339Z,6.90
2022-11-24T06:38:35.976Z,8.80
2022-11-24T06:41:09.752Z,9.85
2022-11-24T06:43:37.271Z,10.52
2022-11-24T06:48:57.182Z,11.23
2022-11-24T06:51:29.241Z,9.07
2022-11-24T06:56:54.224Z,14.57
2022-11-24T07:05:05.454Z,10.25
2022-11-24T07:07:38.152Z,7.70
2022-11-24T07:10:11.183Z,12.35
2022-11-24T07:16:00.209Z,10.27
2022-11-24T07:18:59.742Z,14.23
2022-11-24T07:21:28.125Z,9.70
2022-11-24T07:23:57.230Z,11.65
2022-11-24T07:26:25.876Z,12.20
2022-11-24T07:29:04.137Z,12.55
2022-11-24T07:31:31.452Z,16.45
2022-11-24T07:34:04.222Z,10.00
2022-11-24T07:36:31.236Z,11.45
2022-11-24T07:39:05.679Z,9.40
2022-11-24T07:41:33.135Z,11.57
2022-11-24T07:44:01.135Z,15.20
2022-11-24T07:46:29.251Z,17.35
2022-11-24T07:48:57.149Z,10.55
2022-11-24T07:51:25.144Z,18.88
2022-11-24T07:53:53.168Z,15.98
2022-11-24T07:56:26.127Z,14.48
2022-11-24T07:58:53.305Z,13.73
2022-11-24T08:01:21.281Z,18.65
2022-11-24T08:03:49.130Z,11.00
2022-11-24T08:06:30.036Z,16.40
2022-11-24T08:09:09.305Z,19.05
2022-11-24T08:11:37.183Z,12.38
2022-11-24T08:14:05.403Z,13.38
2022-11-24T08:16:33.196Z,10.63
2022-11-24T08:19:01.145Z,10.60
2022-11-24T08:21:34.320Z,13.50
2022-11-24T08:24:02.607Z,9.90
2022-11-24T08:26:31.123Z,18.35
2022-11-24T08:28:59.727Z,11.02
2022-11-24T08:31:33.370Z,11.30
2022-11-24T08:34:02.837Z,19.27
2022-11-24T08:36:31.770Z,17.95
2022-11-24T08:39:25.248Z,14.27
2022-11-24T08:41:53.104Z,14.50
2022-11-24T08:47:17.404Z,15.63
2022-11-24T08:52:37.106Z,15.02
2022-11-24T08:55:09.355Z,15.00
2022-11-24T08:57:37.202Z,20.20
2022-11-24T09:00:05.986Z,16.95
2022-11-24T09:02:33.122Z,15.90
2022-11-24T09:05:01.136Z,16.05
2022-11-24T09:07:29.162Z,21.23
2022-11-24T09:10:01.159Z,33.20
2022-11-24T09:12:29.118Z,24.17
2022-11-24T09:15:02.143Z,20.30
2022-11-24T09:17:29.116Z,23.27
2022-11-24T09:20:02.120Z,19.08
2022-11-24T09:22:30.531Z,18.52
2022-11-24T09:25:00.392Z,14.52
2022-11-24T09:27:31.048Z,17.27
2022-11-24T09:30:01.112Z,15.55
2022-11-24T09:32:30.821Z,17.30
2022-11-24T09:34:59.182Z,14.50
2022-11-24T09:37:32.418Z,14.68
2022-11-24T09:40:06.151Z,15.10
2022-11-24T09:43:23.862Z,18.60
2022-11-24T09:46:27.300Z,20.70
2022-11-24T09:48:57.690Z,16.55
2022-11-24T09:51:29.464Z,19.17
2022-11-24T09:54:05.659Z,19.52
2022-11-24T09:59:29.245Z,17.67
2022-11-24T10:01:57.169Z,22.55
2022-11-24T10:04:41.722Z,21.80
2022-11-24T10:07:23.431Z,22.17
2022-11-24T10:09:59.930Z,18.23
2022-11-24T10:12:48.737Z,21.33
2022-11-24T10:18:32.731Z,24.20
2022-11-24T10:21:13.219Z,17.73
2022-11-24T10:24:36.291Z,19.15
2022-11-24T10:27:15.996Z,22.13
2022-11-24T10:29:49.001Z,18.98
2022-11-24T10:32:36.981Z,26.42
2022-11-24T10:35:20.587Z,13.75
2022-11-24T10:38:07.610Z,25.50
2022-11-24T10:41:04.719Z,27.77
2022-11-24T10:43:33.185Z,38.42
2022-11-24T10:46:39.470Z,18.63
2022-11-24T10:49:07.352Z,15.43
2022-11-24T10:51:52.645Z,16.40
2022-11-24T10:54:23.441Z,15.73
2022-11-24T10:56:53.242Z,16.55
2022-11-24T10:59:23.992Z,13.30
2022-11-24T11:01:54.655Z,18.05
2022-11-24T11:04:37.269Z,17.42
2022-11-24T11:07:10.251Z,18.60
2022-11-24T11:09:37.347Z,19.85
2022-11-24T11:12:42.589Z,12.82
2022-11-24T11:15:35.577Z,14.68
2022-11-24T11:18:04.307Z,20.48
2022-11-24T11:20:37.546Z,16.33
2022-11-24T11:26:24.179Z,15.63
2022-11-24T11:34:54.126Z,16.98
2022-11-24T11:37:30.958Z,18.48
2022-11-24T11:40:00.206Z,23.38
2022-11-24T11:45:46.512Z,16.55
2022-11-24T11:48:40.596Z,22.00
2022-11-24T11:51:37.528Z,22.45
2022-11-24T11:54:30.029Z,17.13
2022-11-24T11:57:16.455Z,17.48
2022-11-24T12:00:04.974Z,22.40
2022-11-24T12:03:17.306Z,25.55
2022-11-24T12:06:15.425Z,18.23
2022-11-24T12:09:11.446Z,12.15
2022-11-24T12:11:54.374Z,14.27
2022-11-24T12:14:24.245Z,16.13
2022-11-24T12:17:28.863Z,14.32
2022-11-24T12:20:15.373Z,18.08
2022-11-24T12:22:55.081Z,11.07
2022-11-24T12:25:27.447Z,17.00
2022-11-24T12:28:32.656Z,17.25
2022-11-24T12:31:12.266Z,17.55
2022-11-24T12:34:16.369Z,13.30
2022-11-24T12:37:01.865Z,14.18
2022-11-24T12:39:36.341Z,29.52
2022-11-24T12:42:19.424Z,14.32
2022-11-24T12:44:55.702Z,18.73
2022-11-24T12:54:14.241Z,20.02
2022-11-24T13:00:07.969Z,14.18
2022-11-24T13:02:56.587Z,17.27
2022-11-24T13:05:54.953Z,14.75
2022-11-24T13:08:23.451Z,15.75
2022-11-24T13:11:15.140Z,16.80
2022-11-24T13:14:00.756Z,17.13
2022-11-24T13:16:38.523Z,18.58
2022-11-24T13:22:29.516Z,17.15
2022-11-24T13:25:30.767Z,17.80
2022-11-24T13:28:04.148Z,22.92
2022-11-24T13:30:33.695Z,16.65
2022-11-24T13:33:16.579Z,14.68
2022-11-24T13:36:03.990Z,17.17
2022-11-24T13:41:37.039Z,16.23
2022-11-24T13:44:14.700Z,14.73
2022-11-24T13:47:22.018Z,17.38
2022-11-24T13:49:50.237Z,16.90
2022-11-24T13:52:58.064Z,24.10
2022-11-24T13:55:28.826Z,21.30
2022-11-24T13:58:05.509Z,20.45
2022-11-24T14:00:35.619Z,22.95
2022-11-24T14:03:20.658Z,17.80
2022-11-24T14:05:51.404Z,16.23
2022-11-24T14:08:32.531Z,15.80
2022-11-24T14:11:02.942Z,18.80
2022-11-24T14:13:32.760Z,23.60
2022-11-24T14:16:15.543Z,19.75
2022-11-24T14:18:46.224Z,13.07
2022-11-24T14:21:33.436Z,22.08
2022-11-24T14:24:11.562Z,19.98
2022-11-24T14:26:41.163Z,18.38
2022-11-24T14:29:21.944Z,18.58
2022-11-24T14:32:01.746Z,24.15
2022-11-24T14:34:30.803Z,18.60
2022-11-24T14:37:01.311Z,23.60
2022-11-24T14:39:30.233Z,20.08
2022-11-24T14:42:16.119Z,18.20
2022-11-24T14:45:03.867Z,23.10
2022-11-24T14:47:36.940Z,14.93
2022-11-24T14:50:15.294Z,16.88
2022-11-24T14:52:46.017Z,18.90
2022-11-24T14:55:42.382Z,12.88
2022-11-24T14:58:32.235Z,16.67
2022-11-24T15:01:19.158Z,14.68
2022-11-24T15:04:11.613Z,11.45
2022-11-24T15:06:59.844Z,16.30
2022-11-24T15:09:31.410Z,17.05
2022-11-24T15:12:05.707Z,19.73
2022-11-24T15:15:20.406Z,23.85
2022-11-24T15:18:01.352Z,22.65
2022-11-24T15:20:53.962Z,15.07
2022-11-24T15:23:28.258Z,17.92
2022-11-24T15:26:30.277Z,20.60
2022-11-24T15:28:59.153Z,14.25
2022-11-24T15:31:27.216Z,13.30
2022-11-24T15:33:55.303Z,17.45
2022-11-24T15:36:23.088Z,18.35
2022-11-24T15:38:52.103Z,15.73
2022-11-24T15:41:27.985Z,14.20
2022-11-24T15:44:01.367Z,19.10
2022-11-24T15:46:37.533Z,16.83
2022-11-24T15:49:05.832Z,21.52
2022-11-24T15:51:59.546Z,12.90
2022-11-24T15:54:27.613Z,17.15
2022-11-24T15:56:55.134Z,12.73
2022-11-24T15:59:23.161Z,16.60
2022-11-24T16:01:55.174Z,15.25
2022-11-24T16:04:28.108Z,15.13
2022-11-24T16:09:47.082Z,13.48
2022-11-24T16:12:15.474Z,12.32
2022-11-24T16:14:43.076Z,14.85
2022-11-24T16:17:11.136Z,17.02
2022-11-24T16:19:41.967Z,18.40
2022-11-24T16:22:35.158Z,10.55
2022-11-24T16:25:04.272Z,13.13
2022-11-24T16:27:36.660Z,12.65
2022-11-24T16:30:06.084Z,10.98
2022-11-24T16:32:38.263Z,16.40
2022-11-24T16:35:06.069Z,18.13
2022-11-24T16:37:33.282Z,19.25
2022-11-24T16:40:02.440Z,18.88
2022-11-24T16:45:23.203Z,17.58
2022-11-24T16:47:51.184Z,11.25
2022-11-24T16:50:19.113Z,18.38
2022-11-24T16:53:11.272Z,18.27
2022-11-24T16:56:04.198Z,16.77
2022-11-24T16:58:38.627Z,17.65
2022-11-24T17:01:17.859Z,15.15
2022-11-24T17:03:45.176Z,12.95
2022-11-24T17:06:44.159Z,17.15
2022-11-24T17:09:11.587Z,18.30
2022-11-24T17:11:39.154Z,15.38
2022-11-24T17:14:07.118Z,12.15
2022-11-24T17:16:59.279Z,19.98
2022-11-24T17:19:27.148Z,14.55
2022-11-24T17:21:55.181Z,17.52
2022-11-24T17:24:23.200Z,13.25
2022-11-24T17:26:53.968Z,11.38
2022-11-24T17:29:22.008Z,11.50
2022-11-24T17:32:15.257Z,11.98
2022-11-24T17:34:43.159Z,12.80
2022-11-24T17:37:11.124Z,16.55
2022-11-24T17:39:39.101Z,13.98
2022-11-24T17:42:11.105Z,10.98
2022-11-24T17:44:39.162Z,16.45
2022-11-24T17:47:36.118Z,16.25
2022-11-24T17:50:03.258Z,13.98
2022-11-24T17:52:36.164Z,15.95
2022-11-24T17:55:03.231Z,18.45
2022-11-24T17:57:57.194Z,16.98
2022-11-24T18:00:25.250Z,25.98
2022-11-24T18:03:04.480Z,11.52
2022-11-24T18:05:31.123Z,11.98
2022-11-24T18:07:59.910Z,14.20
2022-11-24T18:10:27.101Z,12.82
2022-11-24T18:12:56.159Z,16.92
2022-11-24T18:15:28.129Z,21.85
2022-11-24T18:17:55.177Z,16.77
2022-11-24T18:20:23.273Z,19.60
2022-11-24T18:23:05.184Z,16.30
2022-11-24T18:25:37.091Z,14.55
2022-11-24T18:28:05.135Z,14.85
2022-11-24T18:30:38.193Z,11.77
2022-11-24T18:33:05.140Z,18.73
2022-11-24T18:35:33.139Z,14.35
2022-11-24T18:38:01.113Z,20.63
2022-11-24T18:40:29.136Z,18.73
2022-11-24T18:42:57.205Z,18.67
2022-11-24T18:45:26.133Z,17.33
2022-11-24T18:47:53.575Z,14.30
2022-11-24T18:50:21.996Z,16.08
2022-11-24T18:52:49.140Z,14.63
2022-11-24T18:55:17.132Z,15.73
2022-11-24T18:57:45.134Z,19.33
2022-11-24T19:00:13.578Z,17.05
2022-11-24T19:03:07.150Z,20.38
2022-11-24T19:05:35.275Z,15.35
2022-11-24T19:08:03.139Z,18.98
2022-11-24T19:10:38.885Z,17.65
2022-11-24T19:13:07.151Z,15.90
2022-11-24T19:15:39.155Z,14.52
2022-11-24T19:18:07.225Z,18.77
2022-11-24T19:20:35.461Z,19.15
2022-11-24T19:23:08.148Z,18.60
2022-11-24T19:25:35.290Z,14.05
2022-11-24T19:28:09.052Z,15.10
2022-11-24T19:30:37.116Z,13.82
2022-11-24T19:33:09.283Z,19.02
2022-11-24T19:35:37.143Z,14.35
2022-11-24T19:38:05.127Z,19.70
2022-11-24T19:40:33.092Z,14.27
2022-11-24T19:45:53.234Z,20.67
2022-11-24T19:48:21.130Z,15.50
2022-11-24T19:50:49.103Z,18.48
2022-11-24T19:56:21.167Z,16.95
2022-11-24T19:58:50.397Z,14.93
2022-11-24T20:01:28.642Z,13.85
2022-11-24T20:04:03.869Z,15.55
2022-11-24T20:06:36.790Z,14.15
2022-11-24T20:09:29.407Z,16.23
2022-11-24T20:11:57.125Z,12.52
2022-11-24T20:14:30.147Z,12.20
2022-11-24T20:19:49.099Z,14.50
2022-11-24T20:22:22.218Z,15.68
2022-11-24T20:27:46.123Z,16.38
2022-11-24T20:30:19.169Z,17.05
2022-11-24T20:32:47.101Z,13.00
2022-11-24T20:35:19.137Z,16.52
2022-11-24T20:37:47.165Z,17.35
2022-11-24T20:40:41.115Z,12.07
2022-11-24T20:43:09.098Z,11.70
2022-11-24T20:45:37.221Z,15.23
2022-11-24T20:48:05.371Z,15.48
2022-11-24T20:50:36.814Z,15.25
2022-11-24T20:53:05.341Z,14.98
2022-11-24T20:55:38.132Z,14.73
2022-11-24T20:58:05.138Z,11.88
2022-11-24T21:00:42.269Z,18.40
2022-11-24T21:03:09.115Z,16.60
2022-11-24T21:05:37.149Z,18.85
2022-11-24T21:08:05.292Z,14.82
2022-11-24T21:10:33.135Z,15.48
2022-11-24T21:13:01.102Z,15.20
2022-11-24T21:15:29.378Z,15.07
2022-11-24T21:18:01.134Z,13.35
2022-11-24T21:20:29.190Z,16.30
2022-11-24T21:22:58.117Z,18.83
2022-11-24T21:25:25.194Z,15.80
2022-11-24T21:27:53.087Z,16.65
2022-11-24T21:30:21.147Z,15.85
2022-11-24T21:32:49.140Z,15.25
2022-11-24T21:35:17.125Z,15.73
2022-11-24T21:37:45.155Z,15.80
2022-11-24T21:40:14.949Z,14.98
2022-11-24T21:42:43.141Z,14.13
2022-11-24T21:45:11.687Z,14.02
2022-11-24T21:47:39.194Z,17.60
2022-11-24T21:50:08.074Z,14.50
2022-11-24T21:52:35.106Z,15.52
2022-11-24T21:55:07.511Z,19.77
2022-11-24T21:57:40.198Z,17.27
2022-11-24T22:00:32.908Z,17.20
2022-11-24T22:03:01.091Z,16.17
2022-11-24T22:05:29.099Z,17.48
2022-11-24T22:07:57.258Z,13.30
2022-11-24T22:10:25.328Z,14.85
2022-11-24T22:12:53.146Z,17.95
2022-11-24T22:15:21.292Z,17.38
2022-11-24T22:17:49.119Z,15.88
2022-11-24T22:20:17.249Z,14.48
2022-11-24T22:22:49.263Z,12.88
2022-11-24T22:25:17.083Z,15.20
2022-11-24T22:27:45.165Z,15.05
2022-11-24T22:30:13.564Z,15.73
2022-11-24T22:32:41.128Z,14.80
2022-11-24T22:35:18.150Z,16.73
2022-11-24T22:37:50.184Z,14.52
2022-11-24T22:40:17.239Z,19.40
2022-11-24T22:42:45.602Z,16.70
2022-11-24T22:45:13.307Z,21.42
2022-11-24T22:47:41.106Z,16.73
2022-11-24T22:50:13.698Z,16.80
2022-11-24T22:52:41.096Z,15.07
2022-11-24T22:55:09.151Z,17.02
2022-11-24T22:57:37.102Z,23.65
2022-11-24T23:02:57.582Z,16.25
2022-11-24T23:05:51.185Z,23.63
2022-11-24T23:08:19.304Z,16.35
2022-11-24T23:10:52.201Z,17.17
2022-11-24T23:13:25.105Z,16.85
2022-11-24T23:15:53.444Z,14.73
2022-11-24T23:18:21.109Z,19.25
2022-11-24T23:20:49.098Z,18.23
2022-11-24T23:23:17.105Z,18.55
2022-11-24T23:26:11.981Z,15.38
2022-11-24T23:28:44.772Z,16.55
2022-11-24T23:31:16.160Z,15.88
2022-11-24T23:33:43.908Z,15.68
2022-11-24T23:36:16.277Z,14.50
2022-11-24T23:38:44.113Z,15.50
2022-11-24T23:41:23.322Z,19.92
2022-11-24T23:43:57.075Z,16.77
2022-11-24T23:46:27.103Z,16.55
2022-11-24T23:48:56.156Z,16.90
2022-11-24T23:51:33.471Z,17.23
2022-11-24T23:54:01.326Z,16.48
2022-11-24T23:56:37.443Z,23.15
2022-11-24T23:59:05.382Z,16.88
